Time;durP1;ratioP1;P1;durP2;ratioP2;P2;SDS_P1;SDS_P2;PMS_P1;PMS_P2;Temp;Humidity;BMP_temperature;BMP_pressure;BME280_temperature;BME280_humidity;BME280_pressure;Samples;Min_cycle;Max_cycle;Signal;HPM_P1;HPM_P2
2023/05/18 00:01:30;;;;;;;2.30;0.90;;;9.80;99.90;;;;;;5096862;28;20438;-51
2023/05/18 00:03:58;;;;;;;1.70;1.00;;;9.90;99.90;;;;;;5095380;28;20425;-51
2023/05/18 00:06:26;;;;;;;2.13;0.90;;;10.00;99.90;;;;;;5096880;28;20426;-51
2023/05/18 00:08:53;;;;;;;2.63;1.00;;;10.10;99.90;;;;;;5096560;28;20428;-52
2023/05/18 00:11:20;;;;;;;1.52;0.90;;;10.20;99.90;;;;;;5096646;28;20418;-52
2023/05/18 00:13:47;;;;;;;2.10;1.00;;;10.20;99.90;;;;;;5096534;28;20421;-53
2023/05/18 00:16:15;;;;;;;1.90;1.00;;;10.30;99.90;;;;;;5096753;28;20861;-49
2023/05/18 00:18:43;;;;;;;3.05;1.02;;;10.30;99.90;;;;;;5096451;28;20536;-47
2023/05/18 00:21:14;;;;;;;2.80;1.10;;;10.30;99.90;;;;;;5096009;28;20441;-49
2023/05/18 00:23:48;;;;;;;2.47;1.02;;;10.30;99.90;;;;;;5094879;28;20428;-52
2023/05/18 00:26:15;;;;;;;2.10;1.17;;;10.30;99.90;;;;;;5096485;28;20561;-51
2023/05/18 00:28:42;;;;;;;2.50;1.30;;;10.30;99.90;;;;;;5095142;28;20783;-50
2023/05/18 00:31:09;;;;;;;2.88;1.50;;;10.20;99.90;;;;;;5096233;28;20899;-53
2023/05/18 00:33:36;;;;;;;3.50;1.20;;;10.00;99.90;;;;;;5096362;28;20504;-49
2023/05/18 00:36:03;;;;;;;2.15;1.10;;;9.90;99.90;;;;;;5095855;28;20426;-52
2023/05/18 00:38:31;;;;;;;2.58;1.35;;;9.80;99.90;;;;;;5095440;28;20477;-49
2023/05/18 00:40:58;;;;;;;1.90;1.00;;;9.60;99.90;;;;;;5095149;28;20845;-52
2023/05/18 00:43:25;;;;;;;2.00;1.10;;;9.60;99.90;;;;;;5095673;28;20418;-49
2023/05/18 00:45:52;;;;;;;2.50;1.00;;;9.40;99.90;;;;;;5095405;28;20598;-52
2023/05/18 00:48:19;;;;;;;2.00;1.30;;;9.30;99.90;;;;;;5095448;28;20880;-51
2023/05/18 00:50:46;;;;;;;4.55;1.40;;;9.40;99.90;;;;;;5095186;28;20422;-52
2023/05/18 00:53:13;;;;;;;2.22;1.10;;;9.30;99.90;;;;;;5096073;28;20418;-48
2023/05/18 00:55:42;;;;;;;1.50;1.00;;;9.30;99.90;;;;;;5095911;28;20425;-51
2023/05/18 00:58:09;;;;;;;1.70;1.10;;;9.30;99.90;;;;;;5095591;28;20470;-47
2023/05/18 01:00:37;;;;;;;3.60;1.30;;;9.40;99.90;;;;;;5094950;28;20487;-53
2023/05/18 01:03:04;;;;;;;1.80;1.08;;;9.40;99.90;;;;;;5095330;28;20807;-51
2023/05/18 01:05:31;;;;;;;2.20;1.20;;;9.40;99.90;;;;;;5095461;28;20436;-53
2023/05/18 01:07:59;;;;;;;2.45;1.20;;;9.50;99.90;;;;;;5095443;28;20999;-50
2023/05/18 01:10:26;;;;;;;3.50;1.30;;;9.50;99.90;;;;;;5095189;28;20418;-52
2023/05/18 01:13:01;;;;;;;3.38;1.60;;;9.50;99.90;;;;;;5095166;28;20418;-51
2023/05/18 01:15:32;;;;;;;3.20;1.77;;;9.40;99.90;;;;;;5095426;28;20732;-48
2023/05/18 01:18:06;;;;;;;2.20;1.20;;;9.30;99.90;;;;;;5095786;28;20504;-46
2023/05/18 01:20:37;;;;;;;3.00;1.50;;;9.30;99.90;;;;;;5095122;28;20438;-49
2023/05/18 01:23:41;;;;;;;2.28;1.08;;;9.20;99.90;;;;;;5095685;28;20849;-50
2023/05/18 01:26:24;;;;;;;2.13;1.10;;;9.10;99.90;;;;;;5095082;28;20428;-53
2023/05/18 01:28:51;;;;;;;1.58;1.10;;;9.10;99.90;;;;;;5094953;28;20833;-53
2023/05/18 01:31:19;;;;;;;1.65;1.00;;;9.20;99.90;;;;;;5095562;28;20476;-53
2023/05/18 01:33:46;;;;;;;2.40;1.10;;;9.20;99.90;;;;;;5094996;28;20938;-49
2023/05/18 01:36:13;;;;;;;3.40;1.25;;;9.10;99.90;;;;;;5093225;28;20430;-49
2023/05/18 01:38:41;;;;;;;2.25;1.10;;;9.10;99.90;;;;;;5092958;28;20418;-52
2023/05/18 01:41:14;;;;;;;1.90;1.20;;;9.00;99.90;;;;;;5092738;28;20430;-50
2023/05/18 01:43:51;;;;;;;3.10;1.20;;;9.00;99.90;;;;;;5093369;28;20475;-49
2023/05/18 01:46:26;;;;;;;2.53;1.20;;;9.00;99.90;;;;;;5093806;28;20507;-51
2023/05/18 01:48:58;;;;;;;2.90;1.40;;;9.20;99.90;;;;;;5093691;28;20475;-50
2023/05/18 01:51:31;;;;;;;2.20;1.10;;;9.10;99.90;;;;;;5094975;28;20844;-48
2023/05/18 01:54:04;;;;;;;2.67;1.20;;;9.10;99.90;;;;;;5094572;28;20461;-48
2023/05/18 01:56:32;;;;;;;3.60;1.17;;;9.10;99.90;;;;;;5093635;28;20470;-47
2023/05/18 01:59:00;;;;;;;3.53;1.25;;;9.00;99.90;;;;;;5094515;28;20425;-51
2023/05/18 02:01:28;;;;;;;4.18;1.20;;;9.00;99.90;;;;;;5094758;28;20430;-48
2023/05/18 02:03:55;;;;;;;2.20;1.20;;;9.00;99.90;;;;;;5094468;28;20504;-53
2023/05/18 02:06:22;;;;;;;2.53;1.30;;;9.10;99.90;;;;;;5094590;28;20421;-50
2023/05/18 02:08:49;;;;;;;3.33;1.40;;;9.20;99.90;;;;;;5095041;28;20418;-49
2023/05/18 02:11:16;;;;;;;2.30;1.30;;;9.10;99.90;;;;;;5094938;28;20428;-48
2023/05/18 02:13:43;;;;;;;1.73;1.10;;;9.10;99.90;;;;;;5094705;28;20476;-49
2023/05/18 02:16:12;;;;;;;2.08;1.25;;;9.10;99.90;;;;;;5094764;28;20425;-48
2023/05/18 02:18:39;;;;;;;1.90;1.10;;;9.20;99.90;;;;;;5094984;28;20732;-53
2023/05/18 02:21:08;;;;;;;2.63;1.10;;;9.20;99.90;;;;;;5094789;28;20437;-51
2023/05/18 02:23:35;;;;;;;2.20;1.30;;;9.20;99.90;;;;;;5094529;28;20513;-52
2023/05/18 02:26:02;;;;;;;3.80;1.20;;;9.10;99.90;;;;;;5094845;28;20429;-49
2023/05/18 02:28:29;;;;;;;3.85;1.30;;;9.10;99.90;;;;;;5094457;28;20516;-48
2023/05/18 02:31:05;;;;;;;2.25;1.15;;;8.90;99.90;;;;;;5093878;28;21017;-52
2023/05/18 02:33:38;;;;;;;2.60;1.10;;;8.90;99.90;;;;;;5094348;28;20424;-51
2023/05/18 02:36:07;;;;;;;2.65;1.48;;;8.80;99.90;;;;;;5094552;28;20432;-53
2023/05/18 02:38:37;;;;;;;2.53;1.33;;;8.70;99.90;;;;;;5094611;28;20930;-53
2023/05/18 02:41:04;;;;;;;3.67;1.67;;;8.80;99.90;;;;;;5094442;28;20440;-51
2023/05/18 02:43:31;;;;;;;2.97;1.40;;;8.70;99.90;;;;;;5094590;28;20466;-53
2023/05/18 02:45:58;;;;;;;2.40;1.20;;;8.70;99.90;;;;;;5094621;28;20936;-49
2023/05/18 02:48:25;;;;;;;2.10;1.30;;;8.70;99.90;;;;;;5094364;28;20434;-52
2023/05/18 02:50:53;;;;;;;2.67;1.40;;;8.80;99.90;;;;;;5094950;28;20425;-52
2023/05/18 02:53:22;;;;;;;3.25;1.48;;;8.90;99.90;;;;;;5097431;28;20425;-50
2023/05/18 02:55:52;;;;;;;3.00;1.40;;;8.90;99.90;;;;;;5098231;28;20429;-49
2023/05/18 02:58:21;;;;;;;3.03;1.35;;;8.90;99.90;;;;;;5098485;28;20480;-49
2023/05/18 03:00:51;;;;;;;2.90;1.20;;;8.80;99.90;;;;;;5097672;28;20434;-51
2023/05/18 03:03:18;;;;;;;2.42;1.50;;;8.80;99.90;;;;;;5097674;28;20425;-52
2023/05/18 03:05:45;;;;;;;3.00;1.20;;;8.70;99.90;;;;;;5098017;28;20421;-51
2023/05/18 03:08:14;;;;;;;2.42;1.30;;;8.70;99.90;;;;;;5098024;28;20409;-47
2023/05/18 03:10:41;;;;;;;2.10;1.30;;;8.60;99.90;;;;;;5098197;28;20422;-48
2023/05/18 03:13:08;;;;;;;3.80;1.40;;;8.60;99.90;;;;;;5096312;28;20771;-47
2023/05/18 03:15:36;;;;;;;2.65;1.40;;;8.60;99.90;;;;;;5096401;28;20841;-48
2023/05/18 03:18:03;;;;;;;2.53;1.20;;;8.60;99.90;;;;;;5096453;28;20426;-48
2023/05/18 03:20:30;;;;;;;2.33;1.20;;;8.60;99.90;;;;;;5096597;28;20430;-49
2023/05/18 03:22:57;;;;;;;1.90;1.20;;;8.70;99.90;;;;;;5096144;28;20721;-50
2023/05/18 03:25:26;;;;;;;2.00;1.20;;;8.70;99.90;;;;;;5096289;28;20780;-46
2023/05/18 03:27:53;;;;;;;3.50;1.30;;;8.80;99.90;;;;;;5097819;28;20464;-51
2023/05/18 03:30:20;;;;;;;1.90;1.30;;;8.80;99.90;;;;;;5097518;28;20422;-49
2023/05/18 03:32:47;;;;;;;2.40;1.20;;;8.60;99.90;;;;;;5097566;28;20479;-49
2023/05/18 03:35:14;;;;;;;2.10;1.20;;;8.60;99.90;;;;;;5097644;28;20536;-47
2023/05/18 03:37:42;;;;;;;2.17;1.30;;;8.60;99.90;;;;;;5097400;28;20425;-50
2023/05/18 03:40:11;;;;;;;2.45;1.20;;;8.60;99.90;;;;;;5097438;28;20478;-49
2023/05/18 03:42:40;;;;;;;3.38;1.20;;;8.70;99.90;;;;;;5097245;28;20414;-48
2023/05/18 03:45:08;;;;;;;3.55;1.30;;;8.70;99.90;;;;;;5097376;28;20418;-49
2023/05/18 03:47:35;;;;;;;2.97;1.50;;;8.70;99.90;;;;;;5097309;28;20771;-49
2023/05/18 03:50:03;;;;;;;3.20;1.10;;;8.70;99.90;;;;;;5097069;28;20935;-50
2023/05/18 03:52:32;;;;;;;2.70;1.40;;;8.70;99.90;;;;;;5097313;28;20860;-48
2023/05/18 03:55:00;;;;;;;2.80;1.20;;;8.70;99.90;;;;;;5097035;28;20422;-50
2023/05/18 03:57:28;;;;;;;2.90;1.30;;;8.60;99.90;;;;;;5097429;28;20437;-50
2023/05/18 03:59:57;;;;;;;2.30;1.20;;;8.40;99.90;;;;;;5097057;28;20441;-48
2023/05/18 04:02:24;;;;;;;3.50;1.30;;;8.30;99.90;;;;;;5096461;28;20437;-48
2023/05/18 04:04:52;;;;;;;2.10;1.20;;;8.30;99.90;;;;;;5096595;28;20421;-51
2023/05/18 04:07:21;;;;;;;2.20;1.20;;;8.20;99.90;;;;;;5097186;28;20436;-46
2023/05/18 04:09:48;;;;;;;3.30;1.20;;;8.10;99.90;;;;;;5096748;28;20851;-49
2023/05/18 04:12:15;;;;;;;2.80;1.15;;;8.20;99.90;;;;;;5096738;28;20418;-53
2023/05/18 04:14:48;;;;;;;2.17;1.20;;;8.20;99.90;;;;;;5097013;28;20471;-52
2023/05/18 04:17:21;;;;;;;3.17;1.30;;;8.10;99.90;;;;;;5096528;28;20425;-51
2023/05/18 04:19:48;;;;;;;2.90;1.20;;;8.10;99.90;;;;;;5095885;28;20832;-52
2023/05/18 04:22:15;;;;;;;2.80;1.20;;;8.00;99.90;;;;;;5097010;28;20437;-50
2023/05/18 04:24:44;;;;;;;3.50;1.30;;;8.10;99.90;;;;;;5096699;28;20522;-53
2023/05/18 04:27:12;;;;;;;4.10;1.10;;;8.10;99.90;;;;;;5096508;28;20487;-52
2023/05/18 04:29:39;;;;;;;2.90;1.20;;;8.20;99.90;;;;;;5096154;28;20413;-52
2023/05/18 04:32:07;;;;;;;2.13;1.10;;;8.40;99.90;;;;;;5096771;28;20421;-50
2023/05/18 04:34:36;;;;;;;3.23;1.10;;;8.60;99.90;;;;;;5096600;28;20422;-52
2023/05/18 04:37:05;;;;;;;2.95;1.20;;;8.70;99.90;;;;;;5096486;28;20471;-53
2023/05/18 04:39:33;;;;;;;1.90;1.30;;;8.80;99.90;;;;;;5096276;28;20441;-50
2023/05/18 04:42:00;;;;;;;2.92;1.20;;;8.80;99.90;;;;;;5095461;28;20487;-52
2023/05/18 04:44:28;;;;;;;4.10;1.30;;;8.80;99.90;;;;;;5096111;28;20868;-49
2023/05/18 04:46:56;;;;;;;2.60;1.10;;;8.90;99.90;;;;;;5096220;28;20425;-49
2023/05/18 04:49:24;;;;;;;2.88;1.10;;;8.80;99.90;;;;;;5095193;28;20872;-49
2023/05/18 04:51:55;;;;;;;1.85;1.10;;;8.80;99.90;;;;;;5093764;28;20426;-48
2023/05/18 04:54:23;;;;;;;2.40;1.10;;;8.90;99.90;;;;;;5094204;28;20484;-51
2023/05/18 04:56:50;;;;;;;2.30;1.10;;;8.90;99.90;;;;;;5094720;28;20487;-52
2023/05/18 04:59:17;;;;;;;2.85;1.08;;;9.00;99.90;;;;;;5094664;28;20729;-54
2023/05/18 05:01:45;;;;;;;3.47;1.30;;;9.00;99.90;;;;;;5094488;28;21508;-52
2023/05/18 05:04:12;;;;;;;4.00;1.20;;;8.90;99.90;;;;;;5095237;28;20457;-50
2023/05/18 05:06:39;;;;;;;2.80;1.10;;;8.90;99.90;;;;;;5095501;28;20429;-48
2023/05/18 05:09:07;;;;;;;2.40;1.10;;;8.80;99.90;;;;;;5095209;28;20418;-53
2023/05/18 05:11:34;;;;;;;2.15;1.20;;;8.90;99.90;;;;;;5095955;28;20421;-50
2023/05/18 05:14:02;;;;;;;3.00;1.17;;;8.90;99.90;;;;;;5094629;28;20483;-52
2023/05/18 05:16:29;;;;;;;3.10;1.08;;;8.90;99.90;;;;;;5094096;28;20524;-48
2023/05/18 05:18:56;;;;;;;2.70;1.10;;;8.80;99.90;;;;;;5094119;28;20594;-49
2023/05/18 05:21:23;;;;;;;2.97;1.10;;;8.80;99.90;;;;;;5094003;28;20433;-50
2023/05/18 05:23:50;;;;;;;2.70;1.10;;;8.60;99.90;;;;;;5093383;28;20422;-48
2023/05/18 05:26:20;;;;;;;3.70;1.10;;;8.60;99.90;;;;;;5093013;28;20434;-51
2023/05/18 05:28:47;;;;;;;3.60;1.10;;;8.60;99.90;;;;;;5094675;28;20503;-49
2023/05/18 05:31:14;;;;;;;2.78;1.05;;;8.80;99.90;;;;;;5094384;28;20483;-49
2023/05/18 05:33:41;;;;;;;2.70;1.02;;;8.90;99.90;;;;;;5093793;28;20422;-51
2023/05/18 05:36:09;;;;;;;1.70;1.10;;;8.90;99.90;;;;;;5093357;28;20487;-52
2023/05/18 05:38:36;;;;;;;1.60;1.00;;;8.90;99.90;;;;;;5093967;28;20425;-52
2023/05/18 05:41:03;;;;;;;2.08;1.00;;;8.80;99.90;;;;;;5093279;28;20430;-49
2023/05/18 05:43:31;;;;;;;2.22;1.10;;;8.80;99.90;;;;;;5094161;28;20910;-53
2023/05/18 05:45:58;;;;;;;2.30;1.10;;;8.80;99.90;;;;;;5093866;28;20483;-51
2023/05/18 05:48:25;;;;;;;3.30;1.10;;;9.10;99.90;;;;;;5094561;28;20425;-53
2023/05/18 05:50:52;;;;;;;1.80;0.90;;;9.10;99.90;;;;;;5093976;28;20436;-50
2023/05/18 05:53:22;;;;;;;2.33;0.93;;;9.20;99.90;;;;;;5093804;28;20833;-48
2023/05/18 05:55:49;;;;;;;2.00;1.00;;;9.30;99.90;;;;;;5093265;28;20418;-49
2023/05/18 05:58:16;;;;;;;2.30;1.00;;;9.40;99.90;;;;;;5093190;28;20504;-50
2023/05/18 06:00:45;;;;;;;3.63;1.00;;;9.40;99.90;;;;;;5093709;28;20430;-53
2023/05/18 06:03:12;;;;;;;1.33;0.85;;;9.50;99.90;;;;;;5093904;28;20441;-50
2023/05/18 06:05:40;;;;;;;2.08;1.00;;;9.70;99.90;;;;;;5094904;28;20479;-51
2023/05/18 06:08:07;;;;;;;1.90;0.90;;;9.60;99.90;;;;;;5094665;28;20464;-49
2023/05/18 06:10:34;;;;;;;1.60;0.80;;;9.70;99.90;;;;;;5094091;28;20458;-53
2023/05/18 06:13:01;;;;;;;2.30;0.80;;;9.70;99.90;;;;;;5094677;28;20417;-53
2023/05/18 06:15:28;;;;;;;1.90;0.98;;;9.80;99.90;;;;;;5094402;28;20422;-48
2023/05/18 06:17:56;;;;;;;3.20;1.10;;;9.80;99.90;;;;;;5094577;28;20475;-51
2023/05/18 06:20:25;;;;;;;1.77;0.90;;;9.70;99.90;;;;;;5094357;28;20490;-50
2023/05/18 06:22:52;;;;;;;4.10;0.90;;;9.80;99.90;;;;;;5094572;28;20429;-51
2023/05/18 06:25:19;;;;;;;2.40;1.00;;;9.80;99.90;;;;;;5094505;28;20776;-50
2023/05/18 06:27:46;;;;;;;2.30;0.90;;;10.00;99.90;;;;;;5097124;28;20418;-50
2023/05/18 06:30:13;;;;;;;2.28;0.80;;;10.30;99.90;;;;;;5098458;28;20421;-53
2023/05/18 06:32:41;;;;;;;2.90;0.90;;;10.40;99.90;;;;;;5098238;28;20714;-50
2023/05/18 06:35:11;;;;;;;2.50;1.00;;;10.50;99.90;;;;;;5098205;28;20474;-49
2023/05/18 06:37:39;;;;;;;2.88;1.00;;;10.30;99.90;;;;;;5098252;28;20421;-49
2023/05/18 06:40:07;;;;;;;2.55;0.90;;;10.40;99.90;;;;;;5116460;28;20495;-50
2023/05/18 06:42:35;;;;;;;2.72;0.90;;;10.30;99.90;;;;;;5117105;28;20796;-51
2023/05/18 06:45:02;;;;;;;1.27;0.70;;;10.50;99.90;;;;;;5118721;28;20465;-53
2023/05/18 06:47:29;;;;;;;3.72;0.90;;;10.50;99.90;;;;;;5118781;28;20827;-51
2023/05/18 06:49:56;;;;;;;2.88;0.90;;;10.70;99.90;;;;;;5117145;28;20407;-53
2023/05/18 06:52:25;;;;;;;2.50;0.90;;;10.80;99.90;;;;;;5118852;28;20488;-54
2023/05/18 06:54:52;;;;;;;2.53;0.82;;;10.80;99.90;;;;;;5118503;28;20420;-52
2023/05/18 06:57:19;;;;;;;2.10;0.90;;;10.90;99.90;;;;;;5117291;28;20424;-49
2023/05/18 06:59:52;;;;;;;3.70;0.90;;;10.90;99.90;;;;;;5117701;28;20423;-50
2023/05/18 07:02:19;;;;;;;3.38;0.90;;;10.80;99.90;;;;;;5117388;28;20432;-53
2023/05/18 07:04:46;;;;;;;3.33;0.82;;;10.90;99.90;;;;;;5117177;28;20767;-53
2023/05/18 07:07:13;;;;;;;2.50;0.90;;;11.00;99.90;;;;;;5117710;28;20473;-50
2023/05/18 07:09:42;;;;;;;1.88;0.80;;;11.20;99.90;;;;;;5117927;28;20480;-52
2023/05/18 07:12:09;;;;;;;5.22;0.90;;;11.40;99.90;;;;;;5117779;28;20424;-51
2023/05/18 07:14:36;;;;;;;2.70;1.00;;;11.40;99.90;;;;;;5118339;28;20416;-52
2023/05/18 07:17:05;;;;;;;1.70;0.80;;;11.50;99.90;;;;;;5117337;28;20672;-53
2023/05/18 07:19:33;;;;;;;2.15;0.80;;;11.60;99.90;;;;;;5117345;28;20755;-50
2023/05/18 07:22:00;;;;;;;2.20;0.80;;;11.80;99.90;;;;;;5117451;28;20926;-52
2023/05/18 07:24:27;;;;;;;2.15;0.90;;;11.90;99.90;;;;;;5117414;28;20851;-53
2023/05/18 07:26:55;;;;;;;2.00;0.90;;;11.90;99.90;;;;;;5115588;28;20435;-52
2023/05/18 07:29:22;;;;;;;2.38;0.90;;;12.00;99.90;;;;;;5116255;28;20467;-52
2023/05/18 07:31:49;;;;;;;2.00;0.75;;;12.00;99.90;;;;;;5117505;28;20420;-49
2023/05/18 07:34:16;;;;;;;4.15;0.90;;;12.10;99.90;;;;;;5117179;28;20416;-49
2023/05/18 07:36:43;;;;;;;2.80;1.00;;;12.00;99.90;;;;;;5117418;28;20843;-50
2023/05/18 07:39:17;;;;;;;1.98;1.02;;;12.10;99.90;;;;;;5116714;28;20496;-49
2023/05/18 07:41:44;;;;;;;1.80;0.80;;;12.10;99.90;;;;;;5117607;28;20428;-52
2023/05/18 07:44:13;;;;;;;2.10;0.90;;;12.20;99.90;;;;;;5117427;28;20420;-49
2023/05/18 07:46:40;;;;;;;4.03;0.90;;;12.40;99.90;;;;;;5116830;28;20547;-48
2023/05/18 07:49:07;;;;;;;3.85;0.90;;;12.60;99.90;;;;;;5117207;28;20570;-50
2023/05/18 07:51:34;;;;;;;2.47;0.90;;;12.60;99.90;;;;;;5117692;28;20469;-51
2023/05/18 07:54:01;;;;;;;3.10;0.80;;;12.60;99.90;;;;;;5117150;28;20428;-51
2023/05/18 07:56:29;;;;;;;1.80;0.80;;;12.80;99.90;;;;;;5117189;28;20908;-46
2023/05/18 07:58:56;;;;;;;1.40;0.80;;;12.90;99.90;;;;;;5115028;28;20427;-53
2023/05/18 08:01:26;;;;;;;2.30;0.80;;;12.80;99.90;;;;;;5114556;28;20424;-49
2023/05/18 08:03:53;;;;;;;1.58;0.80;;;13.00;99.90;;;;;;5114363;28;20512;-53
2023/05/18 08:06:20;;;;;;;1.60;0.90;;;13.20;99.90;;;;;;5115045;28;20464;-52
2023/05/18 08:08:47;;;;;;;1.85;0.80;;;13.40;99.90;;;;;;5115491;28;20893;-52
2023/05/18 08:11:14;;;;;;;1.80;0.90;;;13.30;99.90;;;;;;5116058;28;20420;-51
2023/05/18 08:13:41;;;;;;;2.55;0.90;;;13.30;99.90;;;;;;5116511;28;20416;-51
2023/05/18 08:16:08;;;;;;;3.28;0.90;;;13.60;99.90;;;;;;5115878;28;20458;-52
2023/05/18 08:18:37;;;;;;;2.33;0.83;;;13.70;99.90;;;;;;5116301;28;20416;-52
2023/05/18 08:21:06;;;;;;;2.20;1.00;;;13.80;99.90;;;;;;5116565;28;20480;-50
2023/05/18 08:23:34;;;;;;;2.50;0.93;;;13.90;99.90;;;;;;5115666;28;20858;-51
2023/05/18 08:26:02;;;;;;;2.00;0.90;;;14.00;99.90;;;;;;5114570;28;20427;-47
2023/05/18 08:28:29;;;;;;;3.80;0.90;;;14.10;99.90;;;;;;5116875;28;20426;-50
2023/05/18 08:30:56;;;;;;;3.03;1.00;;;14.20;99.90;;;;;;5116598;28;20419;-50
2023/05/18 08:33:23;;;;;;;2.37;0.87;;;14.40;99.90;;;;;;5116293;28;20782;-48
2023/05/18 08:35:52;;;;;;;2.22;1.00;;;14.60;99.90;;;;;;5115831;28;20916;-52
2023/05/18 08:38:19;;;;;;;2.20;0.88;;;14.70;99.90;;;;;;5115614;28;20789;-50
2023/05/18 08:40:52;;;;;;;4.30;1.30;;;14.60;99.90;;;;;;5115099;28;20423;-49
2023/05/18 08:43:22;;;;;;;2.90;0.90;;;14.70;99.90;;;;;;5116060;28;20697;-52
2023/05/18 08:45:58;;;;;;;2.00;0.90;;;14.70;99.90;;;;;;5116432;28;20428;-49
2023/05/18 08:48:30;;;;;;;2.50;0.80;;;14.70;99.90;;;;;;5116101;28;20469;-49
2023/05/18 08:51:01;;;;;;;2.60;0.80;;;14.50;99.90;;;;;;5115231;28;20488;-50
2023/05/18 08:53:30;;;;;;;0.98;0.80;;;14.60;99.90;;;;;;5115796;28;20432;-51
2023/05/18 08:55:59;;;;;;;2.10;0.80;;;14.90;99.90;;;;;;5116673;28;20851;-51
2023/05/18 08:58:32;;;;;;;2.38;0.80;;;15.20;99.90;;;;;;5115647;28;20416;-47
2023/05/18 09:01:00;;;;;;;1.60;0.90;;;15.30;99.90;;;;;;5114501;28;20428;-48
2023/05/18 09:03:27;;;;;;;2.10;0.80;;;15.10;99.90;;;;;;5114428;28;20428;-47
2023/05/18 09:05:56;;;;;;;1.60;0.80;;;15.30;99.90;;;;;;5115293;28;20481;-47
2023/05/18 09:08:26;;;;;;;2.05;0.80;;;15.30;99.90;;;;;;5113574;28;20420;-53
2023/05/18 09:10:56;;;;;;;2.40;0.80;;;15.50;99.90;;;;;;5114980;28;20490;-53
2023/05/18 09:13:24;;;;;;;2.10;0.90;;;15.80;99.90;;;;;;5116468;28;20413;-49
2023/05/18 09:15:51;;;;;;;3.67;0.80;;;15.90;99.90;;;;;;5115962;28;20428;-47
2023/05/18 09:18:18;;;;;;;3.13;0.80;;;15.70;99.90;;;;;;5115595;28;20499;-51
2023/05/18 09:20:45;;;;;;;3.17;0.80;;;15.90;99.90;;;;;;5115118;28;20481;-49
2023/05/18 09:23:12;;;;;;;1.98;0.80;;;16.20;99.90;;;;;;5115362;28;20481;-46
2023/05/18 09:25:44;;;;;;;2.50;0.80;;;16.40;99.90;;;;;;5114553;28;20493;-50
2023/05/18 09:28:13;;;;;;;1.67;0.70;;;16.50;99.90;;;;;;5114191;28;20507;-49
2023/05/18 09:30:41;;;;;;;1.10;0.70;;;16.60;99.90;;;;;;5115076;28;20428;-50
2023/05/18 09:33:17;;;;;;;3.95;1.30;;;16.60;99.90;;;;;;5115459;28;20416;-52
2023/05/18 09:35:45;;;;;;;2.20;0.73;;;16.70;99.90;;;;;;5115455;28;20424;-52
2023/05/18 09:38:14;;;;;;;1.35;0.70;;;16.40;99.90;;;;;;5114855;28;20416;-51
2023/05/18 09:40:47;;;;;;;2.00;0.80;;;16.70;99.90;;;;;;5114006;28;20424;-53
2023/05/18 09:43:15;;;;;;;1.95;0.73;;;16.90;99.90;;;;;;5113931;28;20436;-50
2023/05/18 09:45:44;;;;;;;1.67;0.80;;;17.20;99.90;;;;;;5114599;28;20772;-51
2023/05/18 09:48:11;;;;;;;1.80;0.80;;;17.30;99.90;;;;;;5114943;28;20448;-53
2023/05/18 09:50:39;;;;;;;2.10;0.75;;;17.30;99.90;;;;;;5113940;28;20538;-52
2023/05/18 09:53:08;;;;;;;1.40;0.77;;;17.50;99.90;;;;;;5112500;28;20424;-53
2023/05/18 09:55:38;;;;;;;2.20;0.90;;;17.70;99.90;;;;;;5114367;28;20515;-51
2023/05/18 09:58:07;;;;;;;1.40;0.80;;;17.90;98.50;;;;;;5113299;28;20420;-52
2023/05/18 10:00:41;;;;;;;1.60;0.70;;;17.70;97.20;;;;;;5114127;28;20454;-50
2023/05/18 10:03:17;;;;;;;1.80;0.80;;;17.80;97.60;;;;;;5114555;28;20904;-50
2023/05/18 10:05:44;;;;;;;1.90;0.80;;;18.00;96.60;;;;;;5113943;28;20472;-53
2023/05/18 10:08:13;;;;;;;1.55;0.70;;;18.10;97.00;;;;;;5112041;28;20420;-53
2023/05/18 10:10:43;;;;;;;1.80;0.80;;;18.20;96.70;;;;;;5112857;28;20423;-52
2023/05/18 10:13:16;;;;;;;1.30;0.60;;;18.10;94.10;;;;;;5113129;28;20836;-52
2023/05/18 10:15:48;;;;;;;1.45;0.70;;;18.20;94.80;;;;;;5114156;28;20450;-50
2023/05/18 10:18:21;;;;;;;2.35;0.70;;;18.40;94.00;;;;;;5113798;28;20416;-53
2023/05/18 10:20:49;;;;;;;2.20;0.80;;;18.70;92.60;;;;;;5112903;28;20420;-51
2023/05/18 10:23:18;;;;;;;1.50;0.70;;;18.80;91.50;;;;;;5114217;28;20428;-52
2023/05/18 10:25:46;;;;;;;2.35;0.80;;;18.60;90.60;;;;;;5114357;28;20924;-50
2023/05/18 10:28:23;;;;;;;1.20;0.70;;;18.60;90.10;;;;;;5114665;28;20420;-53
2023/05/18 10:30:51;;;;;;;1.73;0.70;;;18.80;89.30;;;;;;5113852;28;20456;-54
2023/05/18 10:33:19;;;;;;;1.80;0.70;;;19.10;89.70;;;;;;5112819;28;20423;-53
2023/05/18 10:35:48;;;;;;;1.20;0.80;;;19.40;85.10;;;;;;5112781;28;20513;-53
2023/05/18 10:38:19;;;;;;;1.70;0.77;;;19.10;86.40;;;;;;5114519;28;20472;-57
2023/05/18 10:40:48;;;;;;;3.05;0.80;;;19.30;86.60;;;;;;5114122;28;20424;-53
2023/05/18 10:43:20;;;;;;;2.30;0.80;;;19.60;86.00;;;;;;5112969;28;20797;-55
2023/05/18 10:45:48;;;;;;;2.47;0.80;;;19.70;83.20;;;;;;5112474;28;20926;-54
2023/05/18 10:48:16;;;;;;;1.90;0.70;;;20.10;82.00;;;;;;5111490;28;20908;-55
2023/05/18 10:50:44;;;;;;;1.60;0.70;;;20.40;78.30;;;;;;5111132;28;20928;-55
2023/05/18 10:53:13;;;;;;;1.40;0.70;;;20.40;77.90;;;;;;5111367;28;20416;-53
2023/05/18 10:55:40;;;;;;;1.80;0.70;;;20.30;77.70;;;;;;5113127;28;20474;-55
2023/05/18 10:58:13;;;;;;;2.05;0.80;;;20.20;77.10;;;;;;5112878;28;20418;-49
2023/05/18 11:00:44;;;;;;;1.33;0.70;;;20.30;73.40;;;;;;5112917;28;20430;-49
2023/05/18 11:03:13;;;;;;;1.70;0.70;;;20.60;73.90;;;;;;5112907;28;20481;-51
2023/05/18 11:05:42;;;;;;;1.73;0.80;;;20.60;73.60;;;;;;5113700;28;20423;-51
2023/05/18 11:08:10;;;;;;;1.02;0.70;;;20.70;70.70;;;;;;5113242;28;20424;-52
2023/05/18 11:10:41;;;;;;;2.30;0.70;;;20.50;70.00;;;;;;5113288;28;20583;-50
2023/05/18 11:13:10;;;;;;;1.52;0.70;;;20.60;70.60;;;;;;5113582;28;20427;-55
2023/05/18 11:16:08;;;;;;;1.60;0.67;;;20.60;67.50;;;;;;5115028;28;20463;-54
2023/05/18 11:18:44;;;;;;;2.47;0.70;;;20.90;68.00;;;;;;5052897;28;20776;-55
2023/05/18 11:21:22;;;;;;;1.70;0.70;;;21.40;65.20;;;;;;5105368;28;20478;-53
2023/05/18 11:24:14;;;;;;;1.17;0.63;;;21.30;63.80;;;;;;5116151;28;20432;-54
2023/05/18 11:26:42;;;;;;;2.10;0.60;;;20.60;67.20;;;;;;5113603;28;20443;-55
2023/05/18 11:29:20;;;;;;;1.60;0.70;;;21.10;65.00;;;;;;5104460;28;20440;-53
2023/05/18 11:31:50;;;;;;;2.10;0.70;;;21.30;65.50;;;;;;5103861;28;20443;-55
2023/05/18 11:34:36;;;;;;;2.83;0.70;;;21.60;60.10;;;;;;5108959;28;20435;-53
2023/05/18 11:37:05;;;;;;;1.40;0.73;;;20.90;61.50;;;;;;5116895;28;20435;-55
2023/05/18 11:39:33;;;;;;;1.95;0.80;;;20.80;60.10;;;;;;5116538;28;20719;-55
2023/05/18 11:42:01;;;;;;;0.93;0.60;;;20.80;63.20;;;;;;5116412;28;20629;-55
2023/05/18 11:44:29;;;;;;;1.52;0.77;;;21.20;61.40;;;;;;5117399;28;20522;-54
2023/05/18 11:47:07;;;;;;;1.48;0.63;;;21.80;61.70;;;;;;5116502;28;20914;-50
2023/05/18 11:49:37;;;;;;;1.30;0.60;;;22.40;59.50;;;;;;5113732;28;20417;-50
2023/05/18 11:52:06;;;;;;;2.40;0.60;;;22.90;57.40;;;;;;5114846;28;20444;-54
2023/05/18 11:54:35;;;;;;;1.98;0.60;;;22.70;56.50;;;;;;5115579;28;20423;-52
2023/05/18 11:57:03;;;;;;;1.15;0.70;;;22.80;55.70;;;;;;5109761;28;20774;-54
2023/05/18 11:59:31;;;;;;;1.70;0.70;;;22.60;55.30;;;;;;5105339;28;20431;-52
2023/05/18 12:02:01;;;;;;;1.52;0.60;;;22.40;56.40;;;;;;5115181;28;20539;-51
2023/05/18 12:04:30;;;;;;;1.00;0.60;;;22.10;55.60;;;;;;5115338;28;20752;-52
2023/05/18 12:06:58;;;;;;;1.90;0.65;;;22.40;54.80;;;;;;5114700;28;20431;-54
2023/05/18 12:09:25;;;;;;;1.80;0.60;;;22.10;56.00;;;;;;5115950;28;20412;-51
2023/05/18 12:11:52;;;;;;;1.30;0.63;;;21.80;55.90;;;;;;5115372;28;21058;-57
2023/05/18 12:14:20;;;;;;;1.00;0.50;;;21.80;56.40;;;;;;5115417;28;20461;-53
2023/05/18 12:16:48;;;;;;;1.90;0.70;;;21.50;55.30;;;;;;5116708;28;20422;-53
2023/05/18 12:19:16;;;;;;;1.60;0.60;;;21.10;56.30;;;;;;5116585;28;20422;-55
2023/05/18 12:21:44;;;;;;;0.90;0.60;;;21.00;56.10;;;;;;5116921;28;20987;-55
2023/05/18 12:24:12;;;;;;;1.77;0.70;;;21.20;55.70;;;;;;5116094;28;20520;-51
2023/05/18 12:26:40;;;;;;;1.10;0.60;;;21.20;56.60;;;;;;5116415;28;20416;-53
2023/05/18 12:29:08;;;;;;;1.15;0.60;;;21.20;56.90;;;;;;5116363;28;20416;-55
2023/05/18 12:31:36;;;;;;;3.30;0.60;;;20.70;56.70;;;;;;5116462;28;20541;-54
2023/05/18 12:34:03;;;;;;;1.35;0.50;;;20.20;57.50;;;;;;5116046;28;20415;-54
2023/05/18 12:36:32;;;;;;;2.10;0.80;;;20.30;58.90;;;;;;5116291;28;20424;-50
2023/05/18 12:39:01;;;;;;;1.15;0.73;;;20.70;59.20;;;;;;5114061;28;21012;-54
2023/05/18 12:41:28;;;;;;;1.10;0.50;;;21.20;57.70;;;;;;5115664;28;20503;-55
2023/05/18 12:43:57;;;;;;;2.10;0.60;;;21.40;57.90;;;;;;5115940;28;20424;-54
2023/05/18 12:46:24;;;;;;;2.80;0.60;;;22.00;56.10;;;;;;5115075;28;20479;-53
2023/05/18 12:49:00;;;;;;;1.60;0.70;;;22.00;56.30;;;;;;5115411;28;20896;-50
2023/05/18 12:51:32;;;;;;;1.70;0.60;;;21.70;55.90;;;;;;5115634;28;20480;-52
2023/05/18 12:54:00;;;;;;;1.00;0.50;;;21.80;56.90;;;;;;5114458;28;20466;-54
2023/05/18 12:56:28;;;;;;;1.30;0.55;;;22.10;56.10;;;;;;5115013;28;20485;-54
2023/05/18 12:59:01;;;;;;;1.40;0.60;;;22.10;55.20;;;;;;5114331;28;20843;-55